createdAt,value
2019-03-28T00:01:17.777Z,17.83
2019-03-28T00:06:02.956Z,19.50
2019-03-28T00:10:48.257Z,17.67
2019-03-28T00:15:33.427Z,18.30
2019-03-28T00:20:18.797Z,17.40
2019-03-28T00:25:07.322Z,15.80
2019-03-28T00:29:52.423Z,17.17
2019-03-28T00:34:37.523Z,21.13
2019-03-28T00:39:22.651Z,20.13
2019-03-28T00:44:07.791Z,20.47
2019-03-28T00:48:53.200Z,19.93
2019-03-28T00:53:38.302Z,17.23
2019-03-28T00:58:23.549Z,20.90
2019-03-28T01:03:08.635Z,22.77
2019-03-28T01:07:53.833Z,21.90
2019-03-28T01:12:38.973Z,20.07
2019-03-28T01:17:24.113Z,21.70
2019-03-28T01:22:09.267Z,24.93
2019-03-28T01:26:57.470Z,25.13
2019-03-28T01:31:41.274Z,24.67
2019-03-28T01:36:26.529Z,29.60
2019-03-28T01:41:11.634Z,28.80
2019-03-28T01:45:56.947Z,31.80
2019-03-28T01:50:42.162Z,32.50
2019-03-28T01:55:27.302Z,28.43
2019-03-28T02:00:12.800Z,33.17
2019-03-28T02:04:57.980Z,33.67
2019-03-28T02:09:43.114Z,33.60
2019-03-28T02:14:28.321Z,36.97
2019-03-28T02:19:13.463Z,36.33
2019-03-28T02:23:58.581Z,39.00
2019-03-28T02:28:43.876Z,34.40
2019-03-28T02:33:29.165Z,36.03
2019-03-28T02:38:15.321Z,32.27
2019-03-28T02:43:00.666Z,31.50
2019-03-28T02:47:45.814Z,32.00
2019-03-28T02:52:30.990Z,28.73
2019-03-28T02:57:16.230Z,26.60
2019-03-28T03:02:01.494Z,28.40
2019-03-28T03:06:46.712Z,25.97
2019-03-28T03:11:31.966Z,26.33
2019-03-28T03:16:17.324Z,21.57
2019-03-28T03:21:02.480Z,24.33
2019-03-28T03:25:47.764Z,23.93
2019-03-28T03:30:32.916Z,25.70
2019-03-28T03:35:18.156Z,19.73
2019-03-28T03:40:05.751Z,20.23
2019-03-28T03:44:51.149Z,19.73
2019-03-28T03:49:37.253Z,16.80
2019-03-28T03:54:25.686Z,17.10
2019-03-28T03:59:11.674Z,18.90
2019-03-28T04:03:57.309Z,19.00
2019-03-28T04:08:42.462Z,18.93
2019-03-28T04:13:27.596Z,19.37
2019-03-28T04:18:13.792Z,16.37
2019-03-28T04:22:59.202Z,20.13
2019-03-28T04:27:44.525Z,19.93
2019-03-28T04:32:30.235Z,19.13
2019-03-28T04:37:17.724Z,22.37
2019-03-28T04:42:02.936Z,19.60
2019-03-28T04:46:53.404Z,19.60
2019-03-28T04:51:36.331Z,18.90
2019-03-28T04:56:21.621Z,18.17
2019-03-28T05:01:06.885Z,17.97
2019-03-28T05:05:52.519Z,16.13
2019-03-28T05:10:37.676Z,17.23
2019-03-28T05:15:23.010Z,17.47
2019-03-28T05:20:13.090Z,18.07
2019-03-28T05:24:58.595Z,16.77
2019-03-28T05:29:43.881Z,16.30
2019-03-28T05:34:29.169Z,15.80
2019-03-28T05:39:14.412Z,13.93
2019-03-28T05:43:59.837Z,14.77
2019-03-28T05:48:45.209Z,14.70
2019-03-28T05:53:30.726Z,15.83
2019-03-28T05:58:16.113Z,14.63
2019-03-28T06:03:07.509Z,12.33
2019-03-28T06:08:00.998Z,12.83
2019-03-28T06:12:46.474Z,14.07
2019-03-28T06:17:35.014Z,14.40
2019-03-28T06:22:20.686Z,15.30
2019-03-28T06:27:05.843Z,10.67
2019-03-28T06:32:16.470Z,12.63
2019-03-28T06:37:04.177Z,11.37
2019-03-28T06:41:49.979Z,13.13
2019-03-28T06:46:35.322Z,12.60
2019-03-28T06:51:20.426Z,12.27
2019-03-28T06:56:05.691Z,14.67
2019-03-28T07:00:50.949Z,14.23
2019-03-28T07:05:36.168Z,14.67
2019-03-28T07:10:21.337Z,13.73
2019-03-28T07:15:07.077Z,13.33
2019-03-28T07:19:52.307Z,14.60
2019-03-28T07:24:37.762Z,16.07
2019-03-28T07:29:23.095Z,13.63
2019-03-28T07:34:08.247Z,17.03
2019-03-28T07:38:53.357Z,13.40
2019-03-28T07:43:38.578Z,15.50
2019-03-28T07:48:23.960Z,13.67
2019-03-28T07:53:09.247Z,12.17
2019-03-28T07:57:54.593Z,13.63
2019-03-28T08:02:39.803Z,11.07
2019-03-28T08:07:24.886Z,10.67
2019-03-28T08:12:21.825Z,9.57
2019-03-28T08:16:56.919Z,12.03
2019-03-28T08:21:42.300Z,9.53
2019-03-28T08:26:30.234Z,9.63
2019-03-28T08:31:15.188Z,7.17
2019-03-28T08:36:00.671Z,7.87
2019-03-28T08:40:46.299Z,8.50
2019-03-28T08:45:31.533Z,6.57
2019-03-28T08:50:16.719Z,6.70
2019-03-28T08:55:01.978Z,8.43
2019-03-28T08:59:47.245Z,6.47
2019-03-28T09:04:32.386Z,7.53
2019-03-28T09:09:20.919Z,6.93
2019-03-28T09:14:04.494Z,6.70
2019-03-28T09:18:49.756Z,6.97
2019-03-28T09:23:35.009Z,8.03
2019-03-28T09:28:20.285Z,8.87
2019-03-28T09:33:05.887Z,9.30
2019-03-28T09:37:52.188Z,7.47
2019-03-28T09:42:37.247Z,8.60
2019-03-28T09:47:22.567Z,9.50
2019-03-28T09:52:07.675Z,10.63
2019-03-28T09:56:53.061Z,9.13
2019-03-28T10:01:38.356Z,9.13
2019-03-28T10:06:23.573Z,8.93
2019-03-28T10:11:08.782Z,9.33
2019-03-28T10:15:57.159Z,9.70
2019-03-28T10:20:40.763Z,10.50
2019-03-28T10:25:26.051Z,8.87
2019-03-28T10:30:11.663Z,8.50
2019-03-28T10:34:56.866Z,9.40
2019-03-28T10:39:42.186Z,9.30
2019-03-28T10:44:27.609Z,9.53
2019-03-28T10:49:12.874Z,8.33
2019-03-28T10:53:58.082Z,9.60
2019-03-28T10:58:43.179Z,8.43
2019-03-28T11:03:28.497Z,8.37
2019-03-28T11:08:13.703Z,8.63
2019-03-28T11:12:58.872Z,10.80
2019-03-28T11:17:43.949Z,8.20
2019-03-28T11:22:29.294Z,9.10
2019-03-28T11:27:14.444Z,8.73
2019-03-28T11:31:59.760Z,7.67
2019-03-28T11:36:44.999Z,7.03
2019-03-28T11:41:30.165Z,7.90
2019-03-28T11:46:15.350Z,7.83
2019-03-28T11:51:00.455Z,7.93
2019-03-28T11:55:48.727Z,7.30
2019-03-28T12:00:32.610Z,7.70
2019-03-28T12:05:17.830Z,8.20
2019-03-28T12:10:02.964Z,8.00
2019-03-28T12:14:48.157Z,8.57
2019-03-28T12:19:33.371Z,8.60
2019-03-28T12:24:18.674Z,7.77
2019-03-28T12:29:05.826Z,8.33
2019-03-28T12:33:50.827Z,7.97
2019-03-28T12:38:36.079Z,8.90
2019-03-28T12:43:21.245Z,7.57
2019-03-28T12:48:06.368Z,9.07
2019-03-28T12:52:51.779Z,10.47
2019-03-28T12:57:37.003Z,10.73
2019-03-28T13:02:31.400Z,11.17
2019-03-28T13:07:09.200Z,10.80
2019-03-28T13:11:54.395Z,12.10
2019-03-28T13:16:39.557Z,11.00
2019-03-28T13:21:24.799Z,10.33
2019-03-28T13:26:09.878Z,11.67
2019-03-28T13:30:55.191Z,10.73
2019-03-28T13:35:40.297Z,11.00
2019-03-28T13:40:26.189Z,11.63
2019-03-28T13:45:13.028Z,11.27
2019-03-28T13:49:58.175Z,10.90
2019-03-28T13:54:43.468Z,13.77
2019-03-28T13:59:28.544Z,12.97
2019-03-28T14:04:13.784Z,12.93
2019-03-28T14:08:59.029Z,13.27
2019-03-28T14:13:44.094Z,10.97
2019-03-28T14:18:29.398Z,10.87
2019-03-28T14:23:14.586Z,13.50
2019-03-28T14:27:59.928Z,17.30
2019-03-28T14:32:53.258Z,16.20
2019-03-28T14:37:31.881Z,19.30
2019-03-28T14:42:19.635Z,14.40
2019-03-28T14:47:03.853Z,13.57
2019-03-28T14:51:49.278Z,17.50
2019-03-28T14:56:35.101Z,17.70
2019-03-28T15:01:20.435Z,18.27
2019-03-28T15:06:05.633Z,18.77
2019-03-28T15:10:50.801Z,16.67
2019-03-28T15:15:36.058Z,17.90
2019-03-28T15:20:21.281Z,16.10
2019-03-28T15:25:07.026Z,20.53
2019-03-28T15:29:52.121Z,18.13
2019-03-28T15:34:37.409Z,16.67
2019-03-28T15:39:22.564Z,20.60
2019-03-28T15:44:07.752Z,18.90
2019-03-28T15:48:53.085Z,15.20
2019-03-28T15:53:38.489Z,13.57
2019-03-28T15:58:23.974Z,12.40
2019-03-28T16:03:09.803Z,12.77
2019-03-28T16:07:55.020Z,15.43
2019-03-28T16:12:40.261Z,13.43
2019-03-28T16:17:25.571Z,15.67
2019-03-28T16:22:11.646Z,12.93
2019-03-28T16:26:57.180Z,12.53
2019-03-28T16:31:42.515Z,14.73
2019-03-28T16:36:27.695Z,14.23
2019-03-28T16:41:12.896Z,13.80
2019-03-28T16:45:58.086Z,12.47
2019-03-28T16:50:43.328Z,12.67
2019-03-28T16:55:28.500Z,12.83
2019-03-28T17:00:14.678Z,14.60
2019-03-28T17:05:00.398Z,15.33
2019-03-28T17:09:46.635Z,12.13
2019-03-28T17:14:31.896Z,13.73
2019-03-28T17:19:17.537Z,15.67
2019-03-28T17:24:02.628Z,15.53
2019-03-28T17:28:47.904Z,16.20
2019-03-28T17:33:52.071Z,16.77
2019-03-28T17:38:37.519Z,18.93
2019-03-28T17:43:22.952Z,19.43
2019-03-28T17:48:08.244Z,17.20
2019-03-28T17:52:53.949Z,18.50
2019-03-28T17:57:39.688Z,18.37
2019-03-28T18:02:25.222Z,15.57
2019-03-28T18:07:10.526Z,15.27
2019-03-28T18:11:56.026Z,18.20
2019-03-28T18:16:41.819Z,19.43
2019-03-28T18:21:27.204Z,16.60
2019-03-28T18:26:23.267Z,16.17
2019-03-28T18:31:11.749Z,15.70
2019-03-28T18:35:57.889Z,14.67
2019-03-28T18:40:43.516Z,15.67
2019-03-28T18:45:29.063Z,16.50
2019-03-28T18:50:14.736Z,18.60
2019-03-28T18:55:00.391Z,19.47
2019-03-28T18:59:45.818Z,22.17
2019-03-28T19:04:31.600Z,23.50
2019-03-28T19:09:17.230Z,18.37
2019-03-28T19:14:03.566Z,21.47
2019-03-28T19:18:48.695Z,21.37
2019-03-28T19:23:34.146Z,24.97
2019-03-28T19:28:28.551Z,21.03
2019-03-28T19:33:07.311Z,22.00
2019-03-28T19:37:53.059Z,24.57
2019-03-28T19:42:38.435Z,24.13
2019-03-28T19:47:23.689Z,23.60
2019-03-28T19:52:08.714Z,23.07
2019-03-28T19:56:57.180Z,20.43
2019-03-28T20:01:41.283Z,21.03
2019-03-28T20:06:26.473Z,17.97
2019-03-28T20:11:11.687Z,21.13
2019-03-28T20:15:59.998Z,19.57
2019-03-28T20:20:45.404Z,19.67
2019-03-28T20:25:30.619Z,19.83
2019-03-28T20:30:16.344Z,21.27
2019-03-28T20:35:01.609Z,18.33
2019-03-28T20:39:46.901Z,20.07
2019-03-28T20:44:32.683Z,18.80
2019-03-28T20:49:17.845Z,21.27
2019-03-28T20:54:03.713Z,20.73
2019-03-28T20:58:48.857Z,25.90
2019-03-28T21:03:34.465Z,20.33
2019-03-28T21:08:19.628Z,22.03
2019-03-28T21:13:04.873Z,20.20
2019-03-28T21:17:49.987Z,21.87
2019-03-28T21:22:35.163Z,23.03
2019-03-28T21:27:20.914Z,22.10
2019-03-28T21:32:06.134Z,20.77
2019-03-28T21:36:51.405Z,21.33
2019-03-28T21:41:36.532Z,21.23
2019-03-28T21:46:21.766Z,23.47
2019-03-28T21:51:06.813Z,25.47
2019-03-28T21:55:55.467Z,22.50
2019-03-28T22:00:38.918Z,25.10
2019-03-28T22:05:24.362Z,22.77
